Time;durP1;ratioP1;P1;durP2;ratioP2;P2;SDS_P1;SDS_P2;PMS_P1;PMS_P2;Temp;Humidity;BMP_temperature;BMP_pressure;BME280_temperature;BME280_humidity;BME280_pressure;Samples;Min_cycle;Max_cycle;Signal;HPM_P1;HPM_P2
2022/01/21 00:00:29;;;;;;;12.70;4.90;;;;;-0.70;97274.20;;;;111869;1242;41117;-61
2022/01/21 00:03:16;;;;;;;10.30;4.70;;;;;-0.80;97275.80;;;;111741;1242;42186;-59
2022/01/21 00:05:46;;;;;;;9.20;4.20;;;;;-0.70;97286.20;;;;111824;1241;41373;-61
2022/01/21 00:08:16;;;;;;;10.60;4.60;;;;;-0.84;97285.60;;;;111817;1244;41186;-60
2022/01/21 00:10:45;;;;;;;11.30;4.40;;;;;-0.80;97265.40;;;;111816;1241;41235;-60
2022/01/21 00:13:24;;;;;;;10.40;4.60;;;;;-0.80;97273.80;;;;111754;1241;42422;-59
2022/01/21 00:15:54;;;;;;;14.00;4.30;;;;;-0.84;97270.60;;;;111794;1241;41578;-60
2022/01/21 00:18:23;;;;;;;11.10;4.40;;;;;-0.84;97271.00;;;;111769;1242;41169;-61
2022/01/21 00:32:09;;;;;;;10.10;4.50;;;;;-1.08;97321.40;;;;111792;1241;41131;-59
2022/01/21 00:34:38;;;;;;;9.70;3.70;;;;;-1.10;97335.80;;;;111696;1243;42367;-59
2022/01/21 00:37:08;;;;;;;9.80;3.90;;;;;-1.04;97341.80;;;;111738;1241;41136;-59
2022/01/21 00:39:39;;;;;;;12.30;3.70;;;;;-1.10;97339.60;;;;111810;1242;41916;-60
2022/01/21 00:42:29;;;;;;;9.30;4.20;;;;;-1.20;97351.40;;;;111768;1241;41266;-60
2022/01/21 00:45:00;;;;;;;;;;;;;-1.24;97348.60;;;;111834;1242;41129;-58
2022/01/21 00:47:29;;;;;;;10.20;3.60;;;;;-1.30;97346.40;;;;111750;1242;41132;-59
2022/01/21 00:50:00;;;;;;;9.80;4.20;;;;;-1.30;97345.80;;;;111730;1242;41914;-60
2022/01/21 00:52:30;;;;;;;9.60;3.80;;;;;-1.40;97341.20;;;;111734;1242;41367;-59
2022/01/21 00:55:00;;;;;;;13.60;4.20;;;;;-1.40;97354.40;;;;111772;1241;41153;-60
2022/01/21 00:57:29;;;;;;;9.00;3.60;;;;;-1.42;97353.80;;;;111859;1241;41140;-61
2022/01/21 01:00:00;;;;;;;10.80;3.70;;;;;-1.40;97346.60;;;;111766;1241;41998;-58
2022/01/21 01:02:30;;;;;;;9.50;3.50;;;;;-1.38;97350.40;;;;111701;1243;41138;-60
2022/01/21 01:05:00;;;;;;;8.30;3.60;;;;;-1.42;97353.20;;;;111808;1241;41151;-62
2022/01/21 01:07:29;;;;;;;9.70;3.70;;;;;-1.50;97357.60;;;;111845;1241;41862;-59
2022/01/21 01:10:02;;;;;;;9.00;3.20;;;;;-1.40;97354.60;;;;111845;1241;41344;-58
2022/01/21 01:20:46;;;;;;;13.10;3.10;;;;;-1.40;97355.40;;;;111839;1241;41703;-60
2022/01/21 01:23:27;;;;;;;8.80;3.50;;;;;-1.60;97365.60;;;;111816;1241;41936;-60
2022/01/21 01:28:46;;;;;;;9.30;3.40;;;;;-1.60;97358.40;;;;111893;1240;41133;-61
2022/01/21 01:31:17;;;;;;;8.40;3.40;;;;;-1.60;97353.80;;;;111855;1241;41250;-59
2022/01/21 01:33:47;;;;;;;9.10;3.50;;;;;-1.60;97348.40;;;;111753;1241;41115;-59
2022/01/21 01:36:17;;;;;;;13.00;3.80;;;;;-1.70;97355.20;;;;111826;1241;41237;-60
2022/01/21 01:41:42;;;;;;;8.10;3.40;;;;;-1.70;97359.60;;;;111782;1242;41189;-62
2022/01/21 01:49:49;;;;;;;8.80;3.20;;;;;-1.90;97373.40;;;;111781;1241;41445;-60
2022/01/21 01:52:19;;;;;;;8.40;3.60;;;;;-2.00;97383.00;;;;111652;1242;41992;-61
2022/01/21 01:54:52;;;;;;;11.20;3.80;;;;;-2.06;97388.40;;;;111749;1240;41375;-59
2022/01/21 01:57:22;;;;;;;8.90;3.80;;;;;-2.18;97397.60;;;;111818;1241;41240;-59
2022/01/21 01:59:52;;;;;;;9.00;3.80;;;;;-2.30;97395.20;;;;111771;1242;41162;-61
2022/01/21 02:02:23;;;;;;;13.60;4.00;;;;;-2.36;97389.20;;;;111794;1243;41139;-60
2022/01/21 02:04:53;;;;;;;10.10;4.00;;;;;-2.46;97394.60;;;;111760;1243;41296;-60
2022/01/21 02:07:23;;;;;;;9.70;4.20;;;;;-2.60;97402.40;;;;111780;1242;41700;-60
2022/01/21 02:09:54;;;;;;;9.20;4.10;;;;;-2.70;97394.80;;;;111850;1242;41155;-59
2022/01/21 02:12:25;;;;;;;9.20;3.90;;;;;-2.70;97392.80;;;;111915;1241;41693;-59
2022/01/21 02:14:55;;;;;;;9.10;4.00;;;;;-2.80;97393.20;;;;111894;1241;41897;-60
2022/01/21 02:22:49;;;;;;;8.80;3.90;;;;;-2.90;97399.60;;;;111718;1243;41722;-61
2022/01/21 02:25:19;;;;;;;9.50;3.90;;;;;-3.00;97403.20;;;;111748;1241;41138;-59
2022/01/21 02:27:59;;;;;;;8.40;3.30;;;;;-3.00;97404.00;;;;111644;1243;41145;-60
2022/01/21 02:30:34;;;;;;;7.30;3.10;;;;;-3.10;97409.80;;;;111718;1241;42105;-61
2022/01/21 02:33:03;;;;;;;9.10;3.40;;;;;-3.14;97413.60;;;;111761;1243;41106;-60
2022/01/21 02:35:33;;;;;;;9.80;3.60;;;;;-3.20;97423.20;;;;111426;1244;41781;-59
2022/01/21 02:38:03;;;;;;;9.50;3.50;;;;;-3.22;97429.20;;;;111793;1243;42350;-62
2022/01/21 02:40:35;;;;;;;8.30;3.50;;;;;-3.30;97427.20;;;;111588;1242;41859;-60
2022/01/21 02:43:04;;;;;;;8.40;3.70;;;;;-3.30;97421.00;;;;111324;1244;41719;-59
2022/01/21 02:45:36;;;;;;;9.60;3.70;;;;;-3.38;97419.00;;;;111662;1243;41263;-59
2022/01/21 02:48:09;;;;;;;9.60;3.80;;;;;-3.40;97414.00;;;;111699;1241;41250;-59
2022/01/21 02:50:42;;;;;;;8.30;3.70;;;;;-3.38;97415.40;;;;111743;1241;41125;-60
2022/01/21 02:53:25;;;;;;;10.00;4.20;;;;;-3.38;97412.80;;;;111840;1241;41137;-60
2022/01/21 02:55:56;;;;;;;8.80;3.20;;;;;-3.40;97409.00;;;;111787;1241;42534;-63
2022/01/21 02:58:26;;;;;;;9.00;3.30;;;;;-3.40;97405.80;;;;111575;1243;41274;-61
2022/01/21 03:00:57;;;;;;;9.30;3.70;;;;;-3.40;97402.20;;;;111827;1240;41127;-60
2022/01/21 03:03:27;;;;;;;9.20;3.70;;;;;-3.40;97404.80;;;;111812;1241;41707;-62
2022/01/21 03:05:58;;;;;;;9.70;3.90;;;;;-3.48;97410.20;;;;111832;1241;41130;-61
2022/01/21 03:08:29;;;;;;;9.80;4.20;;;;;-3.50;97414.40;;;;111485;1244;41458;-61
2022/01/21 03:10:58;;;;;;;10.70;4.00;;;;;-3.50;97411.80;;;;111530;1243;41387;-60
2022/01/21 03:13:28;;;;;;;11.20;4.20;;;;;-3.50;97408.00;;;;111514;1244;41247;-59
2022/01/21 03:15:57;;;;;;;9.50;4.30;;;;;-3.50;97404.40;;;;111826;1241;41124;-60
2022/01/21 03:18:27;;;;;;;11.80;4.20;;;;;-3.50;97407.60;;;;111845;1242;42546;-62
2022/01/21 03:20:57;;;;;;;11.80;3.90;;;;;-3.60;97413.80;;;;111589;1243;41163;-59
2022/01/21 03:23:29;;;;;;;10.80;4.10;;;;;-3.70;97409.80;;;;111786;1241;43410;-59
2022/01/21 03:25:59;;;;;;;16.70;5.30;;;;;-3.72;97404.60;;;;111757;1242;41460;-60
2022/01/21 03:28:58;;;;;;;12.60;5.20;;;;;-3.80;97410.80;;;;111649;1241;41266;-60
2022/01/21 03:31:29;;;;;;;15.70;5.70;;;;;-3.90;97414.00;;;;111380;1244;41121;-60
2022/01/21 03:34:01;;;;;;;17.40;6.60;;;;;-4.00;97423.80;;;;111155;1246;42573;-61
2022/01/21 03:36:35;;;;;;;15.10;6.20;;;;;-4.10;97418.40;;;;111450;1244;41167;-61
2022/01/21 03:39:04;;;;;;;12.40;5.00;;;;;-4.20;97412.20;;;;111210;1246;41763;-61
2022/01/21 03:41:34;;;;;;;12.00;4.30;;;;;-4.30;97407.20;;;;111481;1245;41142;-60
2022/01/21 03:44:04;;;;;;;10.60;4.60;;;;;-4.40;97416.80;;;;111455;1244;41672;-60
2022/01/21 03:46:34;;;;;;;9.80;4.20;;;;;-4.50;97412.40;;;;111254;1246;41610;-59
2022/01/21 03:49:07;;;;;;;10.20;4.30;;;;;-4.60;97419.60;;;;111490;1243;41890;-58
2022/01/21 03:51:37;;;;;;;10.60;4.10;;;;;-4.64;97423.40;;;;111207;1246;41774;-58
2022/01/21 03:54:07;;;;;;;8.50;3.80;;;;;-4.70;97432.00;;;;111114;1244;41255;-58
2022/01/21 03:56:39;;;;;;;8.40;3.80;;;;;-4.80;97433.80;;;;111459;1243;41590;-59
2022/01/21 03:59:09;;;;;;;14.90;4.20;;;;;-4.80;97444.20;;;;111185;1243;41146;-60
2022/01/21 04:01:39;;;;;;;9.60;4.10;;;;;-4.88;97445.00;;;;111211;1245;41299;-62
2022/01/21 04:04:10;;;;;;;11.10;5.00;;;;;-4.90;97443.00;;;;111408;1244;41778;-60
2022/01/21 04:06:40;;;;;;;11.80;5.00;;;;;-4.94;97445.20;;;;111513;1243;41272;-59
2022/01/21 04:09:11;;;;;;;11.10;4.90;;;;;-5.00;97447.80;;;;111516;1244;42127;-59
2022/01/21 04:11:41;;;;;;;12.50;4.70;;;;;-5.00;97438.80;;;;111452;1244;42535;-61
2022/01/21 04:14:11;;;;;;;12.00;4.90;;;;;-5.02;97442.80;;;;111565;1244;41263;-59
2022/01/21 04:16:42;;;;;;;12.60;5.30;;;;;-5.00;97439.00;;;;111715;1241;42448;-59
2022/01/21 04:19:11;;;;;;;11.40;5.00;;;;;-5.00;97441.00;;;;111511;1241;41125;-59
2022/01/21 04:21:41;;;;;;;11.70;4.80;;;;;-5.00;97443.00;;;;111512;1244;42308;-60
2022/01/21 04:24:15;;;;;;;11.90;5.30;;;;;-4.90;97442.20;;;;111609;1241;41139;-59
2022/01/21 04:26:45;;;;;;;16.60;6.40;;;;;-4.90;97440.00;;;;111747;1241;41600;-58
2022/01/21 04:29:15;;;;;;;15.00;6.70;;;;;-4.90;97435.40;;;;111582;1242;41256;-59
2022/01/21 04:31:49;;;;;;;17.10;6.60;;;;;-4.90;97432.00;;;;111514;1244;42605;-59
2022/01/21 04:34:22;;;;;;;15.30;6.20;;;;;-4.90;97435.40;;;;111422;1244;41140;-58
2022/01/21 04:36:52;;;;;;;14.90;6.40;;;;;-4.90;97439.40;;;;111787;1241;41849;-60
2022/01/21 04:39:30;;;;;;;12.40;4.90;;;;;-4.90;97439.40;;;;111865;1241;41250;-59
2022/01/21 04:47:40;;;;;;;14.00;5.20;;;;;-4.84;97452.40;;;;111444;1244;41831;-58
2022/01/21 04:50:15;;;;;;;14.90;6.50;;;;;-4.90;97453.60;;;;111665;1243;41244;-58
2022/01/21 04:52:49;;;;;;;15.50;7.20;;;;;-5.00;97451.00;;;;111687;1241;41169;-58
2022/01/21 04:55:39;;;;;;;14.60;6.00;;;;;-5.10;97453.80;;;;111724;1243;41257;-60
2022/01/21 04:58:10;;;;;;;14.20;6.10;;;;;-5.20;97457.00;;;;111603;1241;41255;-59
2022/01/21 05:00:46;;;;;;;14.70;6.00;;;;;-5.30;97459.00;;;;111517;1243;41594;-59
2022/01/21 05:03:17;;;;;;;13.50;5.30;;;;;-5.38;97462.40;;;;111720;1243;41261;-62
2022/01/21 05:05:46;;;;;;;14.20;6.10;;;;;-5.40;97463.40;;;;111512;1243;41122;-60
2022/01/21 05:08:27;;;;;;;12.30;5.50;;;;;-5.50;97464.40;;;;111813;1241;41759;-59
2022/01/21 05:10:57;;;;;;;11.90;5.20;;;;;-5.60;97472.80;;;;111529;1241;41575;-59
2022/01/21 05:13:35;;;;;;;14.80;6.10;;;;;-5.60;97473.00;;;;111869;1241;41609;-59
2022/01/21 05:16:50;;;;;;;11.80;5.00;;;;;-5.70;97475.40;;;;111601;1241;41179;-58
2022/01/21 05:19:05;;;;;;;11.30;5.10;;;;;-5.80;97484.00;;;;111485;1243;41356;-58
2022/01/21 05:22:00;;;;;;;11.50;3.80;;;;;-5.80;97480.40;;;;111405;1244;41143;-58
2022/01/21 05:24:35;;;;;;;15.30;5.00;;;;;-5.90;97482.60;;;;111730;1241;41298;-59
2022/01/21 05:27:07;;;;;;;12.10;4.50;;;;;-5.98;97478.80;;;;111499;1243;42396;-59
2022/01/21 05:29:41;;;;;;;12.50;4.80;;;;;-6.00;97480.60;;;;111728;1241;41827;-59
2022/01/21 05:32:20;;;;;;;9.60;4.30;;;;;-6.04;97484.40;;;;111774;1241;41116;-58
2022/01/21 05:35:22;;;;;;;13.00;5.90;;;;;-6.10;97494.40;;;;111413;1243;41254;-59
2022/01/21 05:38:20;;;;;;;11.30;4.80;;;;;-6.20;97492.80;;;;111654;1242;41122;-60
2022/01/21 05:41:08;;;;;;;12.00;4.80;;;;;-6.20;97503.60;;;;111770;1243;41253;-58
2022/01/21 05:44:18;;;;;;;12.30;5.00;;;;;-6.22;97509.20;;;;111507;1241;41273;-61
2022/01/21 05:47:09;;;;;;;13.30;5.10;;;;;-6.30;97516.00;;;;111586;1244;41747;-60
2022/01/21 05:49:57;;;;;;;13.40;4.90;;;;;-6.30;97511.20;;;;111500;1244;41942;-61
2022/01/21 05:52:47;;;;;;;10.40;4.30;;;;;-6.30;97510.60;;;;111847;1241;41602;-59
2022/01/21 05:55:49;;;;;;;10.00;4.60;;;;;-6.30;97516.00;;;;111351;1243;41169;-61
2022/01/21 05:58:31;;;;;;;12.50;4.90;;;;;-6.30;97514.80;;;;111745;1241;41596;-59
2022/01/21 06:01:01;;;;;;;12.00;4.60;;;;;-6.30;97514.00;;;;111551;1243;42411;-59
2022/01/21 06:03:32;;;;;;;11.10;4.40;;;;;-6.30;97512.20;;;;111648;1242;41173;-59
2022/01/21 06:06:01;;;;;;;12.30;5.30;;;;;-6.30;97518.40;;;;111562;1243;42023;-58
2022/01/21 06:08:30;;;;;;;13.40;5.60;;;;;-6.30;97525.60;;;;111817;1241;41250;-59
2022/01/21 06:11:00;;;;;;;19.50;8.70;;;;;-6.30;97525.40;;;;111552;1241;42367;-60
2022/01/21 06:13:30;;;;;;;30.50;12.00;;;;;-6.30;97522.60;;;;111791;1241;41605;-59
2022/01/21 06:15:59;;;;;;;26.60;11.40;;;;;-6.34;97525.60;;;;111554;1242;41148;-59
2022/01/21 06:18:28;;;;;;;30.80;12.60;;;;;-6.38;97528.80;;;;111731;1241;42551;-59
2022/01/21 06:20:58;;;;;;;23.10;9.90;;;;;-6.34;97533.40;;;;111730;1241;41124;-60
2022/01/21 06:23:28;;;;;;;18.90;8.80;;;;;-6.30;97532.60;;;;111774;1241;41383;-58
2022/01/21 06:25:57;;;;;;;18.60;7.10;;;;;-6.30;97534.20;;;;111721;1242;41807;-59
2022/01/21 06:28:27;;;;;;;19.30;9.10;;;;;-6.24;97538.80;;;;111759;1241;41489;-57
2022/01/21 06:30:56;;;;;;;22.20;10.10;;;;;-6.20;97543.40;;;;111430;1243;41156;-59
2022/01/21 06:33:26;;;;;;;27.90;11.10;;;;;-6.20;97545.40;;;;111764;1241;41356;-60
2022/01/21 06:35:55;;;;;;;21.90;10.30;;;;;-6.20;97543.20;;;;111769;1241;41130;-60
2022/01/21 06:38:25;;;;;;;27.40;12.70;;;;;-6.20;97541.40;;;;111754;1241;41130;-59
2022/01/21 06:40:54;;;;;;;32.20;14.20;;;;;-6.10;97540.60;;;;111803;1241;41674;-59
2022/01/21 06:43:23;;;;;;;31.70;13.90;;;;;-6.10;97541.40;;;;111706;1241;41162;-59
2022/01/21 06:45:53;;;;;;;31.00;14.20;;;;;-6.10;97540.00;;;;111798;1241;42253;-59
2022/01/21 06:48:22;;;;;;;33.60;15.90;;;;;-6.00;97538.20;;;;111727;1241;41147;-60
2022/01/21 06:50:51;;;;;;;38.40;17.40;;;;;-6.00;97533.80;;;;111721;1241;41856;-60
2022/01/21 06:53:20;;;;;;;43.30;18.40;;;;;-5.88;97534.20;;;;111771;1242;41984;-59
2022/01/21 06:55:49;;;;;;;42.80;17.70;;;;;-5.70;97533.80;;;;111551;1243;41242;-59
2022/01/21 06:58:18;;;;;;;43.40;18.20;;;;;-5.54;97538.20;;;;111741;1241;40723;-59
2022/01/21 07:00:48;;;;;;;35.70;18.20;;;;;-5.34;97535.80;;;;111703;1241;41149;-60
2022/01/21 07:03:17;;;;;;;30.70;14.60;;;;;-5.10;97533.20;;;;111720;1241;41144;-60
2022/01/21 07:05:46;;;;;;;27.60;13.20;;;;;-4.80;97541.00;;;;111655;1241;42115;-59
2022/01/21 07:08:16;;;;;;;27.80;12.90;;;;;-4.60;97539.20;;;;111679;1241;41140;-58
2022/01/21 07:10:46;;;;;;;25.40;11.90;;;;;-4.50;97536.20;;;;111559;1241;41256;-60
2022/01/21 07:13:15;;;;;;;26.20;12.10;;;;;-4.40;97532.80;;;;111750;1241;41131;-60
2022/01/21 07:15:44;;;;;;;22.60;10.30;;;;;-4.30;97532.00;;;;111812;1241;41581;-58
2022/01/21 07:18:13;;;;;;;17.70;8.90;;;;;-4.20;97545.00;;;;111565;1244;42209;-60
2022/01/21 07:20:42;;;;;;;23.70;10.00;;;;;-4.14;97541.00;;;;111859;1241;41739;-59
2022/01/21 07:23:12;;;;;;;22.30;9.80;;;;;-4.10;97547.40;;;;111761;1242;41136;-59
2022/01/21 07:25:42;;;;;;;22.50;9.60;;;;;-4.00;97550.20;;;;111830;1241;41163;-60
2022/01/21 07:28:11;;;;;;;17.50;8.60;;;;;-3.80;97543.00;;;;111846;1241;42294;-61
2022/01/21 07:30:40;;;;;;;17.40;7.70;;;;;-3.70;97537.60;;;;111797;1241;41253;-60
2022/01/21 07:33:09;;;;;;;17.80;7.60;;;;;-3.60;97536.60;;;;111661;1241;41158;-60
2022/01/21 07:35:39;;;;;;;16.10;7.30;;;;;-3.50;97542.20;;;;111665;1243;41259;-59
2022/01/21 07:38:11;;;;;;;40.20;18.40;;;;;-3.30;97543.00;;;;111699;1241;41603;-61
2022/01/21 07:40:41;;;;;;;34.60;17.20;;;;;-3.20;97542.00;;;;111789;1241;41393;-60
2022/01/21 07:43:10;;;;;;;57.30;27.50;;;;;-3.00;97538.00;;;;111763;1241;41757;-59
2022/01/21 07:45:40;;;;;;;43.70;22.80;;;;;-2.80;97539.20;;;;111833;1241;41143;-60
2022/01/21 07:48:09;;;;;;;46.10;22.70;;;;;-2.70;97536.60;;;;111637;1243;41144;-59
2022/01/21 07:50:39;;;;;;;37.50;17.10;;;;;-2.50;97532.20;;;;111644;1241;41136;-59
2022/01/21 07:53:08;;;;;;;29.60;13.30;;;;;-2.32;97536.80;;;;111669;1243;41905;-60
2022/01/21 07:55:38;;;;;;;25.50;12.00;;;;;-2.20;97534.40;;;;111608;1242;41809;-61
2022/01/21 07:58:08;;;;;;;27.30;12.70;;;;;-2.10;97532.60;;;;111759;1241;41931;-60
2022/01/21 08:00:37;;;;;;;24.90;12.30;;;;;-2.00;97533.40;;;;111794;1241;41462;-62
2022/01/21 08:03:08;;;;;;;21.20;11.10;;;;;-1.90;97532.80;;;;111825;1241;41135;-60
2022/01/21 08:05:44;;;;;;;23.10;11.50;;;;;-1.90;97545.40;;;;111822;1242;41131;-59
2022/01/21 08:08:13;;;;;;;64.30;23.60;;;;;-1.90;97542.00;;;;111773;1243;41852;-63
2022/01/21 08:10:43;;;;;;;56.80;23.60;;;;;-1.90;97544.40;;;;111828;1241;41567;-59
2022/01/21 08:13:12;;;;;;;32.40;15.10;;;;;-1.90;97546.60;;;;111821;1241;41166;-59
2022/01/21 08:15:41;;;;;;;26.10;12.90;;;;;-1.98;97557.60;;;;111868;1241;42442;-61
2022/01/21 08:18:12;;;;;;;24.90;11.80;;;;;-2.00;97561.60;;;;111844;1241;41930;-62
2022/01/21 08:20:41;;;;;;;25.50;11.90;;;;;-2.00;97566.40;;;;111827;1243;41585;-59
2022/01/21 08:23:11;;;;;;;19.20;9.10;;;;;-2.00;97569.40;;;;111545;1244;42137;-61
2022/01/21 08:25:41;;;;;;;17.10;8.80;;;;;-2.00;97567.20;;;;111743;1243;42364;-61
2022/01/21 08:28:11;;;;;;;18.20;8.30;;;;;-1.96;97559.40;;;;111494;1244;41259;-60
2022/01/21 08:30:40;;;;;;;21.10;9.10;;;;;-1.90;97556.40;;;;111778;1241;41158;-60
2022/01/21 08:33:10;;;;;;;18.00;8.30;;;;;-1.80;97565.20;;;;111564;1243;41266;-62
2022/01/21 08:35:39;;;;;;;22.50;9.80;;;;;-1.80;97563.00;;;;111561;1243;41275;-60
2022/01/21 08:38:08;;;;;;;19.20;8.50;;;;;-1.68;97570.20;;;;111562;1244;42485;-59
2022/01/21 08:40:37;;;;;;;20.30;9.40;;;;;-1.60;97571.40;;;;111702;1242;41135;-60
2022/01/21 08:43:06;;;;;;;20.30;8.80;;;;;-1.46;97575.60;;;;111784;1241;41147;-60
2022/01/21 08:45:35;;;;;;;20.90;9.70;;;;;-1.30;97577.20;;;;111746;1241;41830;-60
2022/01/21 08:48:05;;;;;;;18.70;9.20;;;;;-1.20;97583.20;;;;111763;1241;41422;-60
2022/01/21 08:50:34;;;;;;;20.80;9.40;;;;;-1.10;97585.00;;;;111479;1244;41328;-61
2022/01/21 08:53:36;;;;;;;18.80;8.50;;;;;-0.96;97581.80;;;;111541;1243;41130;-59
2022/01/21 08:55:58;;;;;;;18.20;8.50;;;;;-0.76;97581.40;;;;111458;1244;41235;-59
2022/01/21 08:58:27;;;;;;;20.80;8.60;;;;;-0.60;97578.80;;;;111454;1244;41343;-58
2022/01/21 09:00:56;;;;;;;18.70;8.70;;;;;-0.40;97579.80;;;;111508;1242;261518;-59
2022/01/21 09:03:25;;;;;;;22.00;9.70;;;;;-0.22;97583.40;;;;111646;1243;41137;-59
2022/01/21 09:05:55;;;;;;;18.70;8.80;;;;;-0.10;97581.00;;;;111565;1244;41719;-59
2022/01/21 09:08:25;;;;;;;20.70;10.30;;;;;0.10;97582.40;;;;111096;1244;41588;-59
2022/01/21 09:10:55;;;;;;;21.50;10.00;;;;;0.20;97586.00;;;;111405;1243;41171;-60
2022/01/21 09:13:27;;;;;;;19.30;8.30;;;;;0.30;97587.20;;;;111798;1241;41136;-59
2022/01/21 09:16:00;;;;;;;16.70;8.20;;;;;0.40;97588.00;;;;111577;1241;42460;-59
2022/01/21 09:18:44;;;;;;;19.60;9.00;;;;;0.50;97583.40;;;;111430;1244;41141;-61
2022/01/21 09:21:31;;;;;;;15.50;7.40;;;;;0.58;97578.60;;;;111624;1242;41163;-60
2022/01/21 09:24:00;;;;;;;18.90;8.40;;;;;0.70;97573.00;;;;111680;1241;41712;-59
2022/01/21 09:26:30;;;;;;;17.00;8.00;;;;;0.80;97569.80;;;;111807;1241;41601;-60
2022/01/21 09:29:00;;;;;;;16.60;7.80;;;;;0.90;97561.80;;;;111610;1241;41592;-60
2022/01/21 09:31:29;;;;;;;16.70;7.10;;;;;0.92;97564.40;;;;111844;1241;41123;-60
2022/01/21 09:34:19;;;;;;;16.30;7.40;;;;;1.00;97568.20;;;;111928;1241;41136;-58
2022/01/21 09:36:48;;;;;;;17.00;7.50;;;;;1.12;97555.80;;;;111835;1241;41130;-62
2022/01/21 09:39:18;;;;;;;15.80;7.50;;;;;1.30;97558.60;;;;111746;1243;41237;-59
2022/01/21 09:41:48;;;;;;;17.20;6.90;;;;;1.42;97553.60;;;;111847;1241;41410;-58
2022/01/21 09:44:20;;;;;;;15.10;6.40;;;;;1.60;97552.20;;;;111814;1241;41144;-61
2022/01/21 09:46:51;;;;;;;12.90;5.40;;;;;1.48;97541.40;;;;111503;1243;41891;-59
2022/01/21 09:49:26;;;;;;;13.50;5.80;;;;;1.08;97540.00;;;;111715;1244;41998;-60
2022/01/21 09:51:59;;;;;;;12.90;6.10;;;;;1.06;97534.80;;;;111805;1242;41121;-59
2022/01/21 09:54:32;;;;;;;13.00;5.50;;;;;1.20;97533.40;;;;111511;1243;41243;-61
2022/01/21 09:57:04;;;;;;;11.80;5.10;;;;;1.74;97526.80;;;;111781;1241;41484;-58
2022/01/21 09:59:35;;;;;;;13.70;5.60;;;;;3.34;97521.20;;;;111388;1243;41609;-60
2022/01/21 10:02:07;;;;;;;13.10;5.60;;;;;4.20;97514.20;;;;111700;1241;41118;-61
2022/01/21 10:04:41;;;;;;;14.20;5.50;;;;;4.32;97512.40;;;;111801;1241;41146;-61
2022/01/21 10:07:15;;;;;;;13.60;5.40;;;;;4.48;97500.20;;;;111549;1244;41253;-58
2022/01/21 10:09:45;;;;;;;13.20;5.90;;;;;5.38;97491.00;;;;111590;1243;41143;-60
2022/01/21 10:12:15;;;;;;;14.50;6.30;;;;;6.18;97478.80;;;;111750;1241;41237;-59
2022/01/21 10:14:44;;;;;;;13.00;6.00;;;;;7.46;97456.00;;;;111873;1242;41248;-58
2022/01/21 10:17:15;;;;;;;13.20;6.20;;;;;9.08;97454.40;;;;111886;1241;41255;-59
2022/01/21 10:19:45;;;;;;;15.30;6.80;;;;;11.26;97422.40;;;;111803;1241;42360;-59
2022/01/21 10:22:18;;;;;;;14.60;5.50;;;;;11.48;97419.40;;;;111574;1242;41595;-58
2022/01/21 10:25:00;;;;;;;14.70;5.80;;;;;11.38;97415.20;;;;111760;1241;41795;-60
2022/01/21 10:27:32;;;;;;;11.90;4.50;;;;;15.80;97403.00;;;;111774;1242;41144;-59
2022/01/21 10:30:21;;;;;;;13.90;5.30;;;;;18.64;97391.20;;;;111531;1244;41162;-59
2022/01/21 10:32:51;;;;;;;11.60;3.70;;;;;21.30;97383.60;;;;111638;1241;41139;-59
2022/01/21 10:35:34;;;;;;;12.60;4.20;;;;;23.06;97380.20;;;;111729;1242;41260;-59
2022/01/21 10:38:18;;;;;;;10.40;3.80;;;;;18.84;97385.80;;;;111773;1241;41130;-59
2022/01/21 10:40:47;;;;;;;9.20;3.30;;;;;23.14;97379.00;;;;111779;1243;41206;-57
2022/01/21 10:43:20;;;;;;;13.10;3.30;;;;;25.08;97372.60;;;;111750;1241;41144;-57
2022/01/21 10:45:56;;;;;;;8.00;3.20;;;;;22.64;97373.60;;;;111747;1241;41151;-59
2022/01/21 10:48:28;;;;;;;12.10;3.70;;;;;24.82;97373.00;;;;111766;1242;42575;-59
2022/01/21 10:51:16;;;;;;;10.10;3.40;;;;;18.90;97382.80;;;;111763;1242;41602;-57
2022/01/21 10:53:46;;;;;;;11.30;3.80;;;;;22.10;97374.80;;;;111730;1243;41230;-57
2022/01/21 10:56:17;;;;;;;10.60;3.80;;;;;22.78;97370.40;;;;111485;1244;42094;-58
2022/01/21 10:58:51;;;;;;;9.50;3.70;;;;;25.08;97356.80;;;;111728;1241;41210;-60
2022/01/21 11:01:23;;;;;;;9.80;3.80;;;;;27.16;97358.20;;;;111702;1243;41862;-61
2022/01/21 11:04:01;;;;;;;10.80;4.00;;;;;27.74;97354.20;;;;111482;1242;41255;-58
2022/01/21 11:06:39;;;;;;;10.00;4.50;;;;;29.00;97360.60;;;;111697;1241;41296;-58
2022/01/21 11:09:25;;;;;;;10.40;4.10;;;;;30.06;97360.60;;;;111734;1241;41415;-58
2022/01/21 11:12:14;;;;;;;12.80;5.70;;;;;31.16;97360.80;;;;111758;1243;41715;-58
2022/01/21 11:14:59;;;;;;;12.40;5.10;;;;;31.92;97361.40;;;;111736;1242;41140;-58
2022/01/21 11:17:28;;;;;;;14.90;5.50;;;;;31.40;97362.80;;;;111793;1241;41121;-58
2022/01/21 11:20:15;;;;;;;12.70;5.80;;;;;30.30;97359.60;;;;111713;1241;41613;-58
2022/01/21 11:22:56;;;;;;;10.20;4.90;;;;;30.08;97389.40;;;;111741;1241;42347;-57
2022/01/21 11:25:57;;;;;;;12.20;5.70;;;;;28.18;97392.60;;;;111446;1244;41124;-59
2022/01/21 11:28:30;;;;;;;13.30;5.40;;;;;25.98;97402.80;;;;111703;1242;41524;-59
2022/01/21 11:31:10;;;;;;;14.10;5.90;;;;;22.00;97414.60;;;;111504;1243;41153;-58
2022/01/21 11:33:42;;;;;;;15.00;6.10;;;;;20.36;97424.00;;;;111718;1241;41117;-57
2022/01/21 11:36:11;;;;;;;11.90;6.20;;;;;17.08;97434.60;;;;111676;1243;41472;-58
2022/01/21 11:38:44;;;;;;;18.30;7.50;;;;;16.32;97442.20;;;;111743;1244;41212;-58
2022/01/21 11:41:17;;;;;;;12.20;5.30;;;;;15.12;97437.40;;;;111750;1242;41544;-60
2022/01/21 11:43:50;;;;;;;12.50;4.40;;;;;13.70;97444.80;;;;111761;1242;42153;-58
2022/01/21 11:46:37;;;;;;;9.90;3.60;;;;;12.38;97440.80;;;;111765;1243;41750;-58
2022/01/21 11:49:09;;;;;;;9.80;3.20;;;;;10.42;97444.60;;;;111564;1241;41168;-59
2022/01/21 11:51:40;;;;;;;9.60;3.20;;;;;11.04;97448.80;;;;111474;1243;41606;-59
2022/01/21 11:54:17;;;;;;;9.00;3.20;;;;;11.04;97449.80;;;;111684;1242;41256;-57
2022/01/21 11:56:47;;;;;;;11.90;3.80;;;;;13.04;97434.20;;;;111559;1244;41621;-58
2022/01/21 11:59:29;;;;;;;8.00;3.00;;;;;13.78;97414.40;;;;111727;1241;41978;-59
2022/01/21 12:02:15;;;;;;;8.20;2.90;;;;;15.40;97410.60;;;;111448;1243;41979;-59
2022/01/21 12:04:45;;;;;;;10.20;3.50;;;;;16.60;97405.20;;;;111730;1242;41343;-59
2022/01/21 12:07:33;;;;;;;10.40;3.20;;;;;17.98;97398.60;;;;111657;1242;41604;-59
2022/01/21 12:10:13;;;;;;;10.40;3.50;;;;;18.94;97386.40;;;;111391;1244;41601;-58
2022/01/21 12:12:45;;;;;;;9.60;3.10;;;;;19.66;97379.20;;;;111487;1243;41278;-58
2022/01/21 12:15:32;;;;;;;8.90;3.00;;;;;20.28;97380.00;;;;111740;1242;41252;-59
2022/01/21 12:18:06;;;;;;;8.20;3.20;;;;;21.86;97378.40;;;;111714;1242;41837;-59
2022/01/21 12:20:36;;;;;;;13.80;3.40;;;;;23.40;97372.00;;;;111761;1242;41665;-58
2022/01/21 12:23:17;;;;;;;8.10;2.90;;;;;24.42;97370.40;;;;111729;1241;41140;-58
2022/01/21 12:26:04;;;;;;;;;;;;;25.24;97362.20;;;;111832;1241;41153;-58
2022/01/21 12:28:33;;;;;;;10.00;3.40;;;;;26.26;97368.20;;;;111705;1241;41253;-59
2022/01/21 12:31:03;;;;;;;8.60;3.00;;;;;26.96;97368.40;;;;111849;1241;41946;-59
2022/01/21 12:34:12;;;;;;;10.80;3.50;;;;;27.72;97358.60;;;;111331;1246;41150;-59
2022/01/21 12:36:48;;;;;;;11.80;3.10;;;;;28.12;97354.60;;;;111796;1243;41129;-59
2022/01/21 12:39:40;;;;;;;7.70;3.00;;;;;26.86;97357.00;;;;111826;1241;41124;-59
2022/01/21 12:42:20;;;;;;;8.90;3.10;;;;;27.84;97352.60;;;;111761;1241;41678;-59
2022/01/21 12:44:57;;;;;;;;;;;;;27.90;97359.40;;;;111489;1243;41143;-59
2022/01/21 12:47:29;;;;;;;6.90;2.60;;;;;26.98;97381.40;;;;111521;1243;41263;-58
2022/01/21 12:53:22;;;;;;;8.60;3.10;;;;;21.26;97365.00;;;;111710;1241;41295;-60
2022/01/21 12:56:02;;;;;;;9.40;3.60;;;;;22.28;97373.20;;;;111819;1240;41381;-62
2022/01/21 12:58:40;;;;;;;8.50;3.30;;;;;20.94;97362.00;;;;111753;1243;41247;-59
2022/01/21 13:01:11;;;;;;;8.90;3.10;;;;;20.86;97379.00;;;;111467;1241;41127;-58
2022/01/21 13:03:51;;;;;;;10.40;3.70;;;;;19.18;97385.40;;;;111668;1242;41136;-59
2022/01/21 13:07:02;;;;;;;12.80;4.10;;;;;17.50;97395.40;;;;111746;1240;41121;-59
2022/01/21 13:10:01;;;;;;;9.20;3.70;;;;;16.00;97401.20;;;;111746;1242;41658;-59
2022/01/21 13:12:47;;;;;;;10.00;3.80;;;;;14.46;97402.00;;;;111782;1243;41190;-57
2022/01/21 13:15:16;;;;;;;11.60;3.80;;;;;13.84;97419.60;;;;111677;1241;42643;-59
2022/01/21 13:17:45;;;;;;;11.30;4.00;;;;;13.04;97424.00;;;;111746;1241;41182;-59